Analena — CQHL — position and weather

sailwx.info

Track history (hours):
 
Tides and Currents Weather Stations Pressure Air Temp Water Temp Dewpoint Dewpoint Depression Visibility Wind Speed Wind Dir Waves Ship Positions

Analena

Last reported at 2018-Jan-21 00:33 UTC. Time now 2018-Jan-22 07:59 UTC.
Position N 35°57' W 005°34'.

Length 134 m; draft 7.9 m.

Type: Cargo ship. MMSI: 255805587.

Date/timePositionNaut miles runAvg speedWind from/ knotsBaromVisibWave heightAir tempDewpointWater temp
2018-Jan-21 00:33N 35°57' W 005°34'112.1
2018-Jan-21 00:30N 35°57' W 005°33'611.7
2018-Jan-21 00:00N 35°59' W 005°27'510.4
2018-Jan-20 23:29N 36°01' W 005°20'6211.6
2018-Jan-20 18:09N 36°11' W 004°05'110.7
2018-Jan-20 18:00N 36°11' W 004°03'510.5
2018-Jan-20 17:30N 36°12' W 003°56'4912.9
2018-Jan-20 13:42N 36°20' W 002°56'314.6
2018-Jan-20 13:29N 36°21' W 002°52'814.2
2018-Jan-20 12:57N 36°22' W 002°43'612.8
2018-Jan-20 12:30N 36°23' W 002°36'612.6
2018-Jan-20 12:00N 36°24' W 002°29'612.6
2018-Jan-20 11:30N 36°25' W 002°21'612.5
2018-Jan-20 11:00N 36°26' W 002°13'812.7
2018-Jan-20 10:23N 36°30' W 002°05'513.8
2018-Jan-20 10:00N 36°34' W 002°00'713.5
2018-Jan-20 09:30N 36°38' W 001°54'713.5
2018-Jan-20 09:00N 36°42' W 001°47'713.7
2018-Jan-20 08:30N 36°47' W 001°41'713.5
2018-Jan-20 08:00N 36°52' W 001°35'713.3
2018-Jan-20 07:30N 36°56' W 001°28'1613.9
2018-Jan-20 06:20N 37°07' W 001°13'513.9
2018-Jan-20 06:00N 37°10' W 001°09'713.9
2018-Jan-20 05:30N 37°14' W 001°03'713.8
2018-Jan-20 05:00N 37°19' W 000°56'713.8
2018-Jan-20 04:30N 37°23' W 000°49'713.7
2018-Jan-20 04:00N 37°28' W 000°42'713.8
2018-Jan-20 03:30N 37°32' W 000°36'713.5
2018-Jan-20 03:00N 37°37' W 000°30'713.5
2018-Jan-20 02:30N 37°43' W 000°26'1513.4
2018-Jan-20 01:25N 37°56' W 000°17'613.2
2018-Jan-20 00:59N 38°00' W 000°12'612.8
2018-Jan-20 00:30N 38°05' W 000°08'7510.9
2018-Jan-19 17:39N 39°20' W 000°11'213.7
2018-Jan-19 17:28N 39°22' W 000°13'612.6
2018-Jan-19 17:00N 39°26' W 000°18'0 0.6
2018-Jan-19 16:29N 39°26' W 000°19'0 0.0
2018-Jan-19 15:53N 39°26' W 000°19'0 0.0
2018-Jan-19 15:29N 39°26' W 000°19'0 0.0
2018-Jan-19 14:59N 39°26' W 000°19'0 0.0
2018-Jan-19 14:29N 39°26' W 000°19'0 0.0
2018-Jan-19 13:59N 39°26' W 000°19'0 0.0
2018-Jan-19 13:23N 39°26' W 000°19'0 0.0
2018-Jan-19 12:53N 39°26' W 000°19'0 0.0
2018-Jan-19 12:29N 39°26' W 000°19'0 0.0
2018-Jan-19 11:59N 39°26' W 000°19'0 0.0
2018-Jan-19 11:29N 39°26' W 000°19'0 0.0
2018-Jan-19 10:59N 39°26' W 000°19'1 2.3
2018-Jan-19 10:30N 39°26' W 000°17'610.6
2018-Jan-19 09:56N 39°29' W 000°11'613.7
2018-Jan-19 09:29N 39°33' W 000°05'11013.4
2018-Jan-19 01:18N 40°48' E 001°41'412.7
2018-Jan-19 01:01N 40°51' E 001°44'713.1
2018-Jan-19 00:31N 40°56' E 001°49'713.4
2018-Jan-19 00:01N 41°01' E 001°54'713.4
2018-Jan-18 23:30N 41°07' E 001°60'713.3
2018-Jan-18 23:00N 41°12' E 002°05'713.1
2018-Jan-18 22:31N 41°17' E 002°11'4 7.8
2018-Jan-18 21:58N 41°21' E 002°10'0 0.0
2018-Jan-18 21:28N 41°21' E 002°10'0 0.0
2018-Jan-18 20:58N 41°21' E 002°10'0 0.0
2018-Jan-18 20:29N 41°21' E 002°10'0 0.0
2018-Jan-18 19:58N 41°21' E 002°10'0 0.0
2018-Jan-18 19:28N 41°21' E 002°10'0 0.0
2018-Jan-18 18:58N 41°21' E 002°10'0 0.0
2018-Jan-18 18:28N 41°21' E 002°10'0 0.0
2018-Jan-18 17:58N 41°21' E 002°10'0 0.0
2018-Jan-18 17:28N 41°21' E 002°10'0 0.0
2018-Jan-18 16:58N 41°21' E 002°10'0 0.0
2018-Jan-18 16:28N 41°21' E 002°10'0 0.0
2018-Jan-18 15:59N 41°21' E 002°10'0 0.0
2018-Jan-18 15:28N 41°21' E 002°10'0 0.0
2018-Jan-18 14:58N 41°21' E 002°10'0 0.0
2018-Jan-18 14:28N 41°21' E 002°10'0 0.0
2018-Jan-18 13:58N 41°21' E 002°10'0 0.0
2018-Jan-18 13:28N 41°21' E 002°10'0 0.0
2018-Jan-18 12:58N 41°21' E 002°10'0 0.0
2018-Jan-18 12:28N 41°21' E 002°10'0 0.0
2018-Jan-18 11:58N 41°21' E 002°10'0 0.0
2018-Jan-18 11:28N 41°21' E 002°10'0 0.0
2018-Jan-18 10:58N 41°21' E 002°10'0 0.0
2018-Jan-18 10:28N 41°21' E 002°10'0 0.0
2018-Jan-18 09:58N 41°21' E 002°10'0 0.0
2018-Jan-18 09:28N 41°21' E 002°10'0 0.4
2018-Jan-18 09:00N 41°21' E 002°10'3 6.2
2018-Jan-18 08:30N 41°18' E 002°11'4 7.5
2018-Jan-18 08:00N 41°16' E 002°15'0 1.0
2018-Jan-18 07:30N 41°17' E 002°15'1 3.0
2018-Jan-18 07:00N 41°18' E 002°16'510.6
2018-Jan-18 06:30N 41°21' E 002°22'611.2
2018-Jan-18 06:00N 41°23' E 002°28'  
2018-Jan-12 14:59N 36°10' W 005°24'0 0.0
2018-Jan-12 14:30N 36°10' W 005°24'0 0.1
2018-Jan-12 13:59N 36°10' W 005°24'0 0.1
2018-Jan-12 13:26N 36°10' W 005°24'0 0.2
2018-Jan-12 12:56N 36°10' W 005°24'0 0.1
2018-Jan-12 12:30N 36°10' W 005°24'0 0.1
2018-Jan-12 11:59N 36°10' W 005°24'0 0.1
2018-Jan-12 11:29N 36°10' W 005°23'0 0.1
2018-Jan-12 10:59N 36°10' W 005°24'0 0.0
2018-Jan-12 10:29N 36°10' W 005°23'0 0.0
2018-Jan-12 10:00N 36°10' W 005°23'0 0.0
2018-Jan-12 09:30N 36°10' W 005°24'0 0.0
2018-Jan-12 08:59N 36°10' W 005°24'0 0.0
2018-Jan-12 08:30N 36°10' W 005°24'0 0.0
2018-Jan-12 07:59N 36°10' W 005°24'0 0.0
2018-Jan-12 07:23N 36°10' W 005°24'0 0.1
2018-Jan-12 07:01N 36°10' W 005°24'0 0.1
2018-Jan-12 06:29N 36°10' W 005°24'0 0.1
2018-Jan-12 06:00N 36°10' W 005°24'0 0.0
2018-Jan-12 05:29N 36°10' W 005°24'0 0.1
2018-Jan-12 04:59N 36°10' W 005°24'1 1.8
2018-Jan-12 04:30N 36°09' W 005°23'2 4.5
2018-Jan-12 04:00N 36°07' W 005°24'510.9
2018-Jan-12 03:30N 36°02' W 005°23'816.7
2018-Jan-12 03:01N 35°57' W 005°32'713.3
2018-Jan-12 02:30N 35°55' W 005°40'915.2
2018-Jan-12 01:56N 35°55' W 005°50'715.4
2018-Jan-12 01:31N 35°54' W 005°58'713.4
2018-Jan-12 01:01N 35°52' W 006°06'  
Track history (hours):
 
Tides and Currents Weather Stations Pressure Air Temp Water Temp Dewpoint Dewpoint Depression Visibility Wind Speed Wind Dir Waves Ship Positions

Analena

Last reported at 2018-Jan-21 00:33 UTC. Time now 2018-Jan-22 07:59 UTC.
Position N 35°57' W 005°34'.

Length 134 m; draft 7.9 m.

Type: Cargo ship. MMSI: 255805587.

Date/timePositionNaut miles runAvg speedWind from/ knotsBaromVisibWave heightAir tempDewpointWater temp
2018-Jan-21 00:33N 35°57' W 005°34'112.1
2018-Jan-21 00:30N 35°57' W 005°33'611.7
2018-Jan-21 00:00N 35°59' W 005°27'510.4
2018-Jan-20 23:29N 36°01' W 005°20'6211.6
2018-Jan-20 18:09N 36°11' W 004°05'110.7
2018-Jan-20 18:00N 36°11' W 004°03'510.5
2018-Jan-20 17:30N 36°12' W 003°56'4912.9
2018-Jan-20 13:42N 36°20' W 002°56'314.6
2018-Jan-20 13:29N 36°21' W 002°52'814.2
2018-Jan-20 12:57N 36°22' W 002°43'612.8
2018-Jan-20 12:30N 36°23' W 002°36'612.6
2018-Jan-20 12:00N 36°24' W 002°29'612.6
2018-Jan-20 11:30N 36°25' W 002°21'612.5
2018-Jan-20 11:00N 36°26' W 002°13'812.7
2018-Jan-20 10:23N 36°30' W 002°05'513.8
2018-Jan-20 10:00N 36°34' W 002°00'713.5
2018-Jan-20 09:30N 36°38' W 001°54'713.5
2018-Jan-20 09:00N 36°42' W 001°47'713.7
2018-Jan-20 08:30N 36°47' W 001°41'713.5
2018-Jan-20 08:00N 36°52' W 001°35'713.3
2018-Jan-20 07:30N 36°56' W 001°28'1613.9
2018-Jan-20 06:20N 37°07' W 001°13'513.9
2018-Jan-20 06:00N 37°10' W 001°09'713.9
2018-Jan-20 05:30N 37°14' W 001°03'713.8
2018-Jan-20 05:00N 37°19' W 000°56'713.8
2018-Jan-20 04:30N 37°23' W 000°49'713.7
2018-Jan-20 04:00N 37°28' W 000°42'713.8
2018-Jan-20 03:30N 37°32' W 000°36'713.5
2018-Jan-20 03:00N 37°37' W 000°30'713.5
2018-Jan-20 02:30N 37°43' W 000°26'1513.4
2018-Jan-20 01:25N 37°56' W 000°17'613.2
2018-Jan-20 00:59N 38°00' W 000°12'612.8
2018-Jan-20 00:30N 38°05' W 000°08'7510.9
2018-Jan-19 17:39N 39°20' W 000°11'213.7
2018-Jan-19 17:28N 39°22' W 000°13'612.6
2018-Jan-19 17:00N 39°26' W 000°18'0 0.6
2018-Jan-19 16:29N 39°26' W 000°19'0 0.0
2018-Jan-19 15:53N 39°26' W 000°19'0 0.0
2018-Jan-19 15:29N 39°26' W 000°19'0 0.0
2018-Jan-19 14:59N 39°26' W 000°19'0 0.0
2018-Jan-19 14:29N 39°26' W 000°19'0 0.0
2018-Jan-19 13:59N 39°26' W 000°19'0 0.0
2018-Jan-19 13:23N 39°26' W 000°19'0 0.0
2018-Jan-19 12:53N 39°26' W 000°19'0 0.0
2018-Jan-19 12:29N 39°26' W 000°19'0 0.0
2018-Jan-19 11:59N 39°26' W 000°19'0 0.0
2018-Jan-19 11:29N 39°26' W 000°19'0 0.0
2018-Jan-19 10:59N 39°26' W 000°19'1 2.3
2018-Jan-19 10:30N 39°26' W 000°17'610.6
2018-Jan-19 09:56N 39°29' W 000°11'613.7
2018-Jan-19 09:29N 39°33' W 000°05'11013.4
2018-Jan-19 01:18N 40°48' E 001°41'412.7
2018-Jan-19 01:01N 40°51' E 001°44'713.1
2018-Jan-19 00:31N 40°56' E 001°49'713.4
2018-Jan-19 00:01N 41°01' E 001°54'713.4
2018-Jan-18 23:30N 41°07' E 001°60'713.3
2018-Jan-18 23:00N 41°12' E 002°05'713.1
2018-Jan-18 22:31N 41°17' E 002°11'4 7.8
2018-Jan-18 21:58N 41°21' E 002°10'0 0.0
2018-Jan-18 21:28N 41°21' E 002°10'0 0.0
2018-Jan-18 20:58N 41°21' E 002°10'0 0.0
2018-Jan-18 20:29N 41°21' E 002°10'0 0.0
2018-Jan-18 19:58N 41°21' E 002°10'0 0.0
2018-Jan-18 19:28N 41°21' E 002°10'0 0.0
2018-Jan-18 18:58N 41°21' E 002°10'0 0.0
2018-Jan-18 18:28N 41°21' E 002°10'0 0.0
2018-Jan-18 17:58N 41°21' E 002°10'0 0.0
2018-Jan-18 17:28N 41°21' E 002°10'0 0.0
2018-Jan-18 16:58N 41°21' E 002°10'0 0.0
2018-Jan-18 16:28N 41°21' E 002°10'0 0.0
2018-Jan-18 15:59N 41°21' E 002°10'0 0.0
2018-Jan-18 15:28N 41°21' E 002°10'0 0.0
2018-Jan-18 14:58N 41°21' E 002°10'0 0.0
2018-Jan-18 14:28N 41°21' E 002°10'0 0.0
2018-Jan-18 13:58N 41°21' E 002°10'0 0.0
2018-Jan-18 13:28N 41°21' E 002°10'0 0.0
2018-Jan-18 12:58N 41°21' E 002°10'0 0.0
2018-Jan-18 12:28N 41°21' E 002°10'0 0.0
2018-Jan-18 11:58N 41°21' E 002°10'0 0.0
2018-Jan-18 11:28N 41°21' E 002°10'0 0.0
2018-Jan-18 10:58N 41°21' E 002°10'0 0.0
2018-Jan-18 10:28N 41°21' E 002°10'0 0.0
2018-Jan-18 09:58N 41°21' E 002°10'0 0.0
2018-Jan-18 09:28N 41°21' E 002°10'0 0.4
2018-Jan-18 09:00N 41°21' E 002°10'3 6.2
2018-Jan-18 08:30N 41°18' E 002°11'4 7.5
2018-Jan-18 08:00N 41°16' E 002°15'0 1.0
2018-Jan-18 07:30N 41°17' E 002°15'1 3.0
2018-Jan-18 07:00N 41°18' E 002°16'510.6
2018-Jan-18 06:30N 41°21' E 002°22'611.2
2018-Jan-18 06:00N 41°23' E 002°28'  
2018-Jan-12 14:59N 36°10' W 005°24'0 0.0
2018-Jan-12 14:30N 36°10' W 005°24'0 0.1
2018-Jan-12 13:59N 36°10' W 005°24'0 0.1
2018-Jan-12 13:26N 36°10' W 005°24'0 0.2
2018-Jan-12 12:56N 36°10' W 005°24'0 0.1
2018-Jan-12 12:30N 36°10' W 005°24'0 0.1
2018-Jan-12 11:59N 36°10' W 005°24'0 0.1
2018-Jan-12 11:29N 36°10' W 005°23'0 0.1
2018-Jan-12 10:59N 36°10' W 005°24'0 0.0
2018-Jan-12 10:29N 36°10' W 005°23'0 0.0
2018-Jan-12 10:00N 36°10' W 005°23'0 0.0
2018-Jan-12 09:30N 36°10' W 005°24'0 0.0
2018-Jan-12 08:59N 36°10' W 005°24'0 0.0
2018-Jan-12 08:30N 36°10' W 005°24'0 0.0
2018-Jan-12 07:59N 36°10' W 005°24'0 0.0
2018-Jan-12 07:23N 36°10' W 005°24'0 0.1
2018-Jan-12 07:01N 36°10' W 005°24'0 0.1
2018-Jan-12 06:29N 36°10' W 005°24'0 0.1
2018-Jan-12 06:00N 36°10' W 005°24'0 0.0
2018-Jan-12 05:29N 36°10' W 005°24'0 0.1
2018-Jan-12 04:59N 36°10' W 005°24'1 1.8
2018-Jan-12 04:30N 36°09' W 005°23'2 4.5
2018-Jan-12 04:00N 36°07' W 005°24'510.9
2018-Jan-12 03:30N 36°02' W 005°23'816.7
2018-Jan-12 03:01N 35°57' W 005°32'713.3
2018-Jan-12 02:30N 35°55' W 005°40'915.2
2018-Jan-12 01:56N 35°55' W 005°50'715.4
2018-Jan-12 01:31N 35°54' W 005°58'713.4
2018-Jan-12 01:01N 35°52' W 006°06'  

Dump ship's entire track history